Deneb — DBBA — position and weather

sailwx.info

Track history (hours):
 
Tides and Currents Weather Stations Pressure Air Temp Water Temp Dewpoint Dewpoint Depression Visibility Wind Speed Wind Dir Waves Ship Positions

Oceanographic research ship Deneb (Germany)

Detailed information on ship capabilities available from University of Delaware's Ocean Information Center.

Last reported at 2019-Dec-15 09:00 UTC. Time now 2019-Dec-15 10:22 UTC.
Position N 53°36' E 008°36'.

Length 52 m; beam 11 m; draft 5 m.

Type: Law enforcement. MMSI: 211222290.

Wind from 240 at 21 knots

Barometer 989.4 mb
Air temperature 7.9 ° C
Dewpoint 4.1 ° C
Water temperature 6.3 ° C

Date/timePositionNaut miles runAvg speedWind from/ knotsBaromVisibWave heightAir tempDewpointWater temp
2019-Dec-15 09:00N 53°36' E 008°36'0 0.0 240 / 21989.4 7.9 4.1 6.3
2019-Dec-15 08:00N 53°36' E 008°36'3 4.1 220 / 17987.9 7.8 5.5 6.5
2019-Dec-15 07:15N 53°33' E 008°34'312.2
2019-Dec-15 07:00N 53°36' E 008°36'0 0.0 190 / 16987.8 5.7 4.3 6.5
2019-Dec-15 06:00N 53°36' E 008°36'0 0.0 170 / 16988.3 5.4 2.9 6.5
2019-Dec-15 05:00N 53°36' E 008°36'0 0.0 160 / 14989.4 4.2 1.7 6.4
2019-Dec-15 04:00N 53°36' E 008°36'0 0.0 160 / 12991.5 4.5 1.8 6.4
2019-Dec-15 03:00N 53°36' E 008°36'0 0.0 180 / 10993.1 3.4 1.2 6.4
2019-Dec-15 02:00N 53°36' E 008°36'0 0.0 190 / 10994.0 3.7 1.5 6.5
2019-Dec-15 01:00N 53°36' E 008°36'0 0.0 200 / 8994.7 4.2 1.4 6.6
2019-Dec-15 00:00N 53°36' E 008°36'0 0.0 230 / 14994.6 4.5 1.1 6.6
2019-Dec-14 23:00N 53°36' E 008°36'0 0.0 230 / 14994.2 4.2 1.8 6.5
2019-Dec-14 22:00N 53°36' E 008°36'0 0.0 240 / 17993.3 4.1 1.9 6.5
2019-Dec-14 21:00N 53°36' E 008°36'0 0.0 240 / 17992.2 4.5 2.2 6.5
2019-Dec-14 20:00N 53°36' E 008°36'0 0.0 250 / 16991.0 4.8 2.4 6.5
2019-Dec-14 19:00N 53°36' E 008°36'0 0.0 230 / 16989.5 5.4 2.5 7.0
2019-Dec-14 18:00N 53°36' E 008°36'0 0.0 230 / 17988.2 6.2 2.3 6.7
2019-Dec-14 17:00N 53°36' E 008°36'0 0.0 230 / 16987.7 6.2 2.1 6.5
2019-Dec-14 16:00N 53°36' E 008°36'0 0.0 230 / 14987.4 5.4 2.5 6.5
2019-Dec-14 15:00N 53°36' E 008°36'0 0.0 250 / 14986.5 4.7 2.8 6.6
2019-Dec-14 14:00N 53°36' E 008°36'0 0.0 250 / 14985.5 5.7 3.4 6.7
2019-Dec-14 13:00N 53°36' E 008°36'0 0.0 250 / 19984.6 6.0 2.8 6.6
2019-Dec-14 12:00N 53°36' E 008°36'0 0.0 240 / 16983.8 6.0 3.3 6.5
2019-Dec-14 11:00N 53°36' E 008°36'0 0.0 230 / 16982.9 5.0 3.3 6.6
2019-Dec-14 10:00N 53°36' E 008°36'0 0.0 220 / 12982.4 4.5 3.2 6.6
2019-Dec-14 09:00N 53°36' E 008°36'0 0.0 240 / 14981.7 4.1 2.7 6.5
2019-Dec-14 08:00N 53°36' E 008°36'0 0.0 230 / 16980.6 5.0 3.2 6.7
2019-Dec-14 07:00N 53°36' E 008°36'0 0.0 220 / 10979.8 4.9 3.7 6.7
2019-Dec-14 06:00N 53°36' E 008°36'0 0.0 190 / 8979.6 4.7 3.3 6.3
2019-Dec-14 05:00N 53°36' E 008°36'316.5 180 / 10979.4 4.7 3.4 6.1
2019-Dec-14 04:48N 53°33' E 008°34'0 0.0
2019-Dec-14 04:30N 53°33' E 008°34'3 6.0
2019-Dec-14 04:00N 53°36' E 008°36'3 6.2 180 / 10979.8 5.0 3.7 5.9
2019-Dec-14 03:30N 53°33' E 008°34'3 6.1
2019-Dec-14 03:00N 53°36' E 008°36'0 0.0 220 / 10980.4 5.3 4.1 5.7
2019-Dec-14 02:00N 53°36' E 008°36'0 0.0 180 / 8980.7 4.2 3.8 6.0
2019-Dec-14 01:00N 53°36' E 008°36'0 0.0 180 / 8980.8 3.3 2.9 6.8
2019-Dec-14 00:00N 53°36' E 008°36'3 4.9 180 / 10981.3 2.4 2.0 6.7
2019-Dec-13 23:22N 53°33' E 008°34'3 8.2
2019-Dec-13 23:00N 53°36' E 008°36'3 5.8 170 / 8981.6 2.1 1.7 6.7
2019-Dec-13 22:28N 53°33' E 008°34'3 6.6
2019-Dec-13 22:00N 53°36' E 008°36'0 0.0 170 / 6981.9 1.5 1.5 6.7
2019-Dec-13 21:00N 53°36' E 008°36'3 4.1 180 / 6982.0 1.1 0.7 6.5
2019-Dec-13 20:15N 53°33' E 008°34'312.3
2019-Dec-13 20:00N 53°36' E 008°36'0 0.0 160 / 4981.9 1.2 0.7 6.3
2019-Dec-13 19:00N 53°36' E 008°36'0 0.0 160 / 6981.5 1.5 0.8 6.2
2019-Dec-13 18:00N 53°36' E 008°36'0 0.0 160 / 6981.0 2.3 1.0 6.2
2019-Dec-13 17:00N 53°36' E 008°36'0 0.0 120 / 4980.6 2.1 0.4 6.1
2019-Dec-13 16:00N 53°36' E 008°36'0 0.0 120 / 6980.0 2.1 0.4 6.1
2019-Dec-13 15:00N 53°36' E 008°36'0 0.0 120 / 8979.5 2.0 0.5 5.8
2019-Dec-13 14:00N 53°36' E 008°36'0 0.0 120 / 8978.9 2.7-0.2 6.3
2019-Dec-13 13:00N 53°36' E 008°36'0 0.0 120 / 6978.4 2.7-0.5 6.6
2019-Dec-13 12:00N 53°36' E 008°36'0 0.0 130 / 8978.3 2.6-0.6 6.6
2019-Dec-13 11:00N 53°36' E 008°36'0 0.0 120 / 8978.3 2.2-0.9 6.5
2019-Dec-13 10:00N 53°36' E 008°36'0 0.0 130 / 10978.4 2.1-1.2 6.4
2019-Dec-13 09:00N 53°36' E 008°36'3 4.9 130 / 12978.4 1.9-1.2 6.4
2019-Dec-13 08:21N 53°33' E 008°34'3 8.4
2019-Dec-13 08:00N 53°36' E 008°36'0 0.0 130 / 12978.5 1.7-1.2 6.2
2019-Dec-13 07:00N 53°36' E 008°36'3 6.9 140 / 4979.0 1.9-1.1 6.7
2019-Dec-13 06:33N 53°33' E 008°34'0 0.0
2019-Dec-13 06:21N 53°33' E 008°34'3 8.8
2019-Dec-13 06:00N 53°36' E 008°36'312.2 130 / 10979.7 1.8-1.1 6.9
2019-Dec-13 05:44N 53°33' E 008°34'3 4.1
2019-Dec-13 05:00N 53°36' E 008°36'3 4.0 130 / 14980.3 1.8-1.1 6.9
2019-Dec-13 04:14N 53°33' E 008°34'313.0
2019-Dec-13 04:00N 53°36' E 008°36'0 0.0 140 / 12981.2 2.1-0.8 6.7
2019-Dec-13 03:00N 53°36' E 008°36'0 0.0 140 / 12982.5 2.2-0.8 6.3
2019-Dec-13 02:00N 53°36' E 008°36'0 0.0 140 / 12984.1 2.1-0.7 6.1
2019-Dec-13 01:00N 53°36' E 008°36'0 0.0 140 / 12985.3 2.1-0.5 5.9
2019-Dec-13 00:00N 53°36' E 008°36'0 0.0 150 / 10987.2 2.1-0.5 6.5
2019-Dec-12 23:00N 53°36' E 008°36'0 0.0 150 / 10988.7 2.3-0.1 6.8
2019-Dec-12 22:00N 53°36' E 008°36'0 0.0 140 / 10990.1 2.3 0.7 6.7
2019-Dec-12 21:00N 53°36' E 008°36'0 0.0 150 / 10991.5 2.5-0.0 6.7
2019-Dec-12 20:00N 53°36' E 008°36'324.7 150 / 10992.5 3.1 0.6 6.6
2019-Dec-12 19:52N 53°33' E 008°34'3 3.5
2019-Dec-12 19:00N 53°36' E 008°36'0 0.0 150 / 10993.8 3.5 1.0 6.6
2019-Dec-12 18:00N 53°36' E 008°36'0 0.0 150 / 8994.8 3.9 1.2 6.6
2019-Dec-12 17:00N 53°36' E 008°36'0 0.0 160 / 6995.7 4.3 2.0 6.6
2019-Dec-12 16:00N 53°36' E 008°36'0 0.0 160 / 8996.5 4.7 2.5 6.4
2019-Dec-12 15:00N 53°36' E 008°36'0 0.0 160 / 6996.9 5.5 3.1 6.2
2019-Dec-12 14:00N 53°36' E 008°36'3 5.0 160 / 6997.2 5.7 3.1 6.1
2019-Dec-12 13:22N 53°33' E 008°34'3 8.1
2019-Dec-12 13:00N 53°36' E 008°36'0 0.0 160 / 8998.1 5.8 3.5 6.9
2019-Dec-12 12:00N 53°36' E 008°36'0 0.0 160 / 10998.6 5.5 3.2 6.8
2019-Dec-12 11:00N 53°36' E 008°36'0 0.0 160 / 12998.9 5.4 3.6 6.8
2019-Dec-12 10:00N 53°36' E 008°36'0 0.0 160 / 12999.5 5.4 3.6 6.8
2019-Dec-12 09:00N 53°36' E 008°36'0 0.0 160 / 6999.6 5.4 3.6 6.7
2019-Dec-12 08:00N 53°36' E 008°36'0 0.0 160 / 6999.4 5.4 3.7 6.5
2019-Dec-12 07:00N 53°36' E 008°36'0 0.0 160 / 8999.6 5.0 4.2 6.3
2019-Dec-12 06:00N 53°36' E 008°36'3124.5 160 / 8999.7 4.8 4.1 6.4
2019-Dec-12 05:58N 53°33' E 008°34'3 3.2
2019-Dec-12 05:00N 53°36' E 008°36'3 6.4 160 / 81000.0 4.6 3.8 6.4
2019-Dec-12 04:30N 53°33' E 008°34'3 6.0
2019-Dec-12 04:00N 53°36' E 008°36'0 0.0 160 / 61000.4 4.9 3.6 6.3
2019-Dec-12 03:00N 53°36' E 008°36'0 0.0 160 / 61001.0 5.1 3.6 6.2
2019-Dec-12 02:00N 53°36' E 008°36'31231.3 160 / 61001.5 5.1 3.5 6.2
2019-Dec-12 01:59N 53°33' E 008°34'0 0.0
2019-Dec-12 01:23N 53°33' E 008°34'3 7.8
2019-Dec-12 01:00N 53°36' E 008°36'3 5.5 160 / 61001.8 5.0 3.7 6.0
2019-Dec-12 00:26N 53°33' E 008°34'3 7.1
2019-Dec-12 00:00N 53°36' E 008°36'311.4 160 / 61002.0 5.3 4.1 6.7
2019-Dec-11 23:43N 53°33' E 008°34'3 4.2
2019-Dec-11 23:00N 53°36' E 008°36'3 4.5 160 / 61002.6 5.5 4.3 6.7
2019-Dec-11 22:19N 53°33' E 008°34'3 9.6
2019-Dec-11 22:00N 53°36' E 008°36'3 3.1 160 / 81002.9 5.6 4.5 6.8
2019-Dec-11 21:00N 53°33' E 008°34'3291.6
2019-Dec-11 21:00N 53°36' E 008°36'0 0.0 160 / 61003.2 5.7 4.8 6.8
2019-Dec-11 20:00N 53°36' E 008°36'3 6.2 160 / 41003.3 5.8 5.3 6.7
2019-Dec-11 19:30N 53°33' E 008°34'3 6.2
2019-Dec-11 19:00N 53°36' E 008°36'0 0.0 160 / 41003.6 5.8 5.8 6.7
2019-Dec-11 18:00N 53°36' E 008°36'0 0.0 160 / 61003.9 5.5 5.6 6.7
2019-Dec-11 17:00N 53°36' E 008°36'0 0.0 160 / 61003.9 5.5 5.1 6.7
2019-Dec-11 16:00N 53°36' E 008°36'0 0.0 160 / 61004.3 5.6 5.1 6.5
2019-Dec-11 15:00N 53°36' E 008°36'0 0.0 160 / 61004.5 5.7 5.0 6.4
2019-Dec-11 14:00N 53°36' E 008°36'0 0.0 160 / 61005.0 5.9 5.0 6.2
2019-Dec-11 13:00N 53°36' E 008°36'0 0.0 160 / 61005.5 6.1 4.9 6.0
2019-Dec-11 12:00N 53°36' E 008°36'0 0.0 160 / 81006.3 5.9 4.8 6.7
2019-Dec-11 11:00N 53°36' E 008°36'349.7 160 / 81006.9 5.8 4.8 6.5
2019-Dec-11 10:56N 53°33' E 008°34'3 3.3
2019-Dec-11 10:00N 53°36' E 008°36'0 0.0 200 / 61007.4 5.5 4.6 6.2
2019-Dec-11 09:00N 53°36' E 008°36'0 0.0 200 / 81006.8 5.2 4.4 6.8
2019-Dec-11 08:00N 53°36' E 008°36'3 6.3 200 / 101006.9 5.1 4.2 6.7
2019-Dec-11 07:30N 53°33' E 008°34'3 6.0
2019-Dec-11 07:00N 53°36' E 008°36'3 3.1 210 / 101006.8 5.2 4.0 6.8
2019-Dec-11 06:00N 53°33' E 008°34'3923.5
2019-Dec-11 06:00N 53°36' E 008°36'0 0.0 220 / 141006.9 5.5 4.1 7.0
2019-Dec-11 05:00N 53°36' E 008°36'0 0.0 220 / 161006.9 5.7 3.6 7.0
2019-Dec-11 04:00N 53°36' E 008°36'0 0.0 210 / 141006.8 6.4 2.3 6.7
2019-Dec-11 03:00N 53°36' E 008°36'0 0.0 210 / 141006.8 6.1 1.9 6.3
2019-Dec-11 02:00N 53°36' E 008°36'0 0.0 210 / 121007.4 6.0 0.5 6.0
2019-Dec-11 01:00N 53°36' E 008°36'0 0.0 200 / 161007.6 6.2-0.5 5.7
2019-Dec-11 00:00N 53°36' E 008°36'0 0.0 200 / 141008.6 6.0-0.4 5.5
2019-Dec-10 23:00N 53°36' E 008°36'0 0.0 190 / 141009.4 5.5 0.3 5.5
2019-Dec-10 22:00N 53°36' E 008°36'0 0.0 180 / 161010.0 5.1 0.3 5.4
2019-Dec-10 21:00N 53°36' E 008°36'0 0.0 180 / 171010.9 4.7 1.0 5.3
2019-Dec-10 20:00N 53°36' E 008°36'0 0.0 180 / 161012.4 4.5 1.3 5.3
2019-Dec-10 19:00N 53°36' E 008°36'0 0.0 180 / 161013.7 4.2 1.5 5.3
2019-Dec-10 18:00N 53°36' E 008°36'0 0.0 180 / 171014.8 4.0 1.8 5.6
2019-Dec-10 17:00N 53°36' E 008°36'0 0.0 180 / 141016.2 4.1 1.8 6.3
2019-Dec-10 16:00N 53°36' E 008°36'0 0.0 190 / 121017.3 4.6 1.8 7.0
2019-Dec-10 15:00N 53°36' E 008°36'0 0.0 190 / 101018.0 5.4 2.1 7.7
2019-Dec-10 14:00N 53°36' E 008°36'0 0.0 200 / 81019.2 5.7 1.9 8.4
2019-Dec-10 13:00N 53°36' E 008°36'3 4.2 200 / 81020.1 5.8 1.8 9.7
2019-Dec-10 12:16N 53°33' E 008°34'311.2
2019-Dec-10 12:00N 53°36' E 008°36'0 0.0 330 / 101020.9 5.8 1.110.5
2019-Dec-10 11:00N 53°36' E 008°36'0 0.0 330 / 81021.3 5.4 1.1 8.1
2019-Dec-10 10:00N 53°36' E 008°36'0 0.0 330 / 101021.7 4.5 1.9 6.9
2019-Dec-10 09:00N 53°36' E 008°36'0 0.0 330 / 81021.1 4.1 1.6 7.0
2019-Dec-10 08:00N 53°36' E 008°36'0 0.0 330 / 81021.0 3.7 1.5 7.0
2019-Dec-10 07:00N 53°36' E 008°36'0 0.0 330 / 81020.3 3.2 1.5 7.4
2019-Dec-10 06:00N 53°36' E 008°36'0 0.0 330 / 61019.8 3.8 1.7 8.3
2019-Dec-10 05:00N 53°36' E 008°36'3 3.9 330 / 121019.2 5.9 1.9 8.6
2019-Dec-10 04:13N 53°33' E 008°34'314.2
2019-Dec-10 04:00N 53°36' E 008°36'0 0.0 330 / 101018.4 5.7 2.5 8.9
2019-Dec-10 03:00N 53°36' E 008°36'0 0.0 340 / 101017.3 5.5 1.9 9.0
2019-Dec-10 02:00N 53°36' E 008°36'310.2 340 / 101016.3 6.1 2.3 9.2
2019-Dec-10 01:41N 53°33' E 008°34'3 4.4
2019-Dec-10 01:00N 53°36' E 008°36'0 0.0 340 / 161014.9 6.0 1.3 9.3
2019-Dec-10 00:00N 53°36' E 008°36'0 0.0 330 / 171013.7 6.1 2.8 9.2
2019-Dec-09 23:00N 53°36' E 008°36'0 0.0 330 / 161012.3 6.3 3.0 9.2
2019-Dec-09 22:00N 53°36' E 008°36'324.0 330 / 191011.0 5.2 1.8 9.1
2019-Dec-09 21:52N 53°33' E 008°34'3 3.5
2019-Dec-09 21:00N 53°36' E 008°36'3 5.7 340 / 161009.5 6.5 0.8 9.0
2019-Dec-09 20:27N 53°33' E 008°34'3 6.7
2019-Dec-09 20:00N 53°36' E 008°36'3 8.9 340 / 171007.9 6.7 0.5 9.1
2019-Dec-09 19:39N 53°33' E 008°34'3 4.7
2019-Dec-09 19:00N 53°36' E 008°36'0 0.0 340 / 141006.0 7.7 0.9 8.7
2019-Dec-09 18:00N 53°36' E 008°36'319.6 340 / 121004.3 7.2 2.8 9.0
2019-Dec-09 17:50N 53°33' E 008°34'3 3.7
2019-Dec-09 17:00N 53°36' E 008°36'0 0.0 350 / 101002.3 7.4 2.5 8.8
2019-Dec-09 16:00N 53°36' E 008°36'0 0.0 350 / 81000.3 6.7 4.2 8.9
2019-Dec-09 15:00N 53°36' E 008°36'0 0.0 330 / 12998.3 6.5 5.2 8.5
2019-Dec-09 14:00N 53°36' E 008°36'0 0.0 330 / 12996.5 6.8 4.8 8.5
2019-Dec-09 13:00N 53°36' E 008°36'0 0.0 330 / 14995.5 6.8 4.5 8.5
2019-Dec-09 12:00N 53°36' E 008°36'0 0.0 330 / 12994.5 6.8 4.2 8.3
2019-Dec-09 11:00N 53°36' E 008°36'0 0.0 330 / 10993.9 6.8 4.3 8.0
2019-Dec-09 10:00N 53°36' E 008°36'0 0.0 330 / 14993.5 7.0 4.1 7.8
2019-Dec-09 09:00N 53°36' E 008°36'0 0.0 330 / 12993.0 7.0 3.9 7.6
2019-Dec-09 08:00N 53°36' E 008°36'0 0.0 992.6 6.7 4.0 7.2
2019-Dec-09 07:00N 53°36' E 008°36'0 0.0 992.0 6.2 3.8 6.9
2019-Dec-09 06:00N 53°36' E 008°36'0 0.0 991.6 6.0 3.6 7.1
2019-Dec-09 05:00N 53°36' E 008°36'3 4.7 991.6 6.3 3.7 7.1
2019-Dec-09 04:20N 53°33' E 008°34'3 8.9
2019-Dec-09 04:00N 53°36' E 008°36'3 5.0 991.6 6.3 3.9 7.0
2019-Dec-09 03:23N 53°33' E 008°34'3 7.9
2019-Dec-09 03:00N 53°36' E 008°36'0 0.0 991.6 6.2 3.8 7.0
2019-Dec-09 02:00N 53°36' E 008°36'0 0.0 991.8 5.7 3.8 7.1
2019-Dec-09 01:00N 53°36' E 008°36'0 0.0 991.6 5.9 3.8 7.3
2019-Dec-09 00:00N 53°36' E 008°36'0 0.0 991.6 6.5 3.2 7.3
2019-Dec-08 23:00N 53°36' E 008°36'3 6.2 991.4 6.6 3.9 7.5
2019-Dec-08 22:30N 53°33' E 008°34'3 6.1
2019-Dec-08 22:00N 53°36' E 008°36'0 0.0 991.7 6.6 4.0 7.5
2019-Dec-08 21:00N 53°36' E 008°36'3 6.0 992.3 6.9 4.1 7.8
2019-Dec-08 20:29N 53°33' E 008°34'3 6.3
2019-Dec-08 20:00N 53°36' E 008°36'3201.5 992.5 7.5 4.6 8.1
2019-Dec-08 19:59N 53°33' E 008°34'3 3.1
2019-Dec-08 19:00N 53°36' E 008°36'0 0.0 992.8 7.4 4.8 8.0
2019-Dec-08 18:00N 53°36' E 008°36'3104.5 993.2 7.9 4.8 8.3
2019-Dec-08 17:58N 53°33' E 008°34'3 3.2
2019-Dec-08 17:00N 53°36' E 008°36'322.4 993.3 8.3 5.5 8.7
2019-Dec-08 16:51N 53°33' E 008°34'3 3.6
2019-Dec-08 16:00N 53°36' E 008°36'0 0.0 993.3 8.8 5.4 9.0
2019-Dec-08 15:00N 53°36' E 008°36'0 0.0 993.0 9.0 6.5 9.3
2019-Dec-08 14:00N 53°36' E 008°36'0 0.0 992.9 9.9 7.1 9.4
2019-Dec-08 13:00N 53°36' E 008°36'347.0 992.8 9.8 7.8 9.4
2019-Dec-08 12:56N 53°33' E 008°34'3 3.3
2019-Dec-08 12:00N 53°36' E 008°36'0 0.0 993.0 9.7 8.1 9.1
2019-Dec-08 11:00N 53°36' E 008°36'310.9 993.4 9.1 7.9 8.8
2019-Dec-08 10:43N 53°33' E 008°34'0 0.0
2019-Dec-08 10:00N 53°33' E 008°34'3240.9
2019-Dec-08 10:00N 53°36' E 008°36'3 3.1 994.3 8.7 7.5 8.6
2019-Dec-08 09:00N 53°33' E 008°34'3554.1
2019-Dec-08 09:00N 53°36' E 008°36'0 0.0 995.0 8.3 6.8 8.6
2019-Dec-08 08:00N 53°36' E 008°36'0 0.0 995.1 8.4 6.3 8.6
2019-Dec-08 07:00N 53°36' E 008°36'0 0.0 996.6 8.8 5.2 8.5
2019-Dec-08 06:00N 53°36' E 008°36'0 0.0 997.7 8.7 5.1 8.5
2019-Dec-08 05:00N 53°36' E 008°36'0 0.0 998.6 8.8 5.4 8.5
2019-Dec-08 04:00N 53°36' E 008°36'3 5.8 220 / 41000.7 8.8 5.7 8.4
2019-Dec-08 03:27N 53°33' E 008°34'3 6.6
2019-Dec-08 03:00N 53°36' E 008°36'381.5 1002.1 8.5 5.7 8.2
2019-Dec-08 02:57N 53°33' E 008°34'0 0.0
2019-Dec-08 02:09N 53°33' E 008°34'319.6
2019-Dec-08 02:00N 53°36' E 008°36'3 4.7 1003.4 8.1 5.0 8.1
2019-Dec-08 01:21N 53°33' E 008°34'3 8.8
2019-Dec-08 01:00N 53°36' E 008°36'0 0.0 1004.8 8.1 5.1 8.2
2019-Dec-08 00:00N 53°36' E 008°36'351.8 1006.0 8.2 5.4 8.3
2019-Dec-07 23:56N 53°33' E 008°34'0 0.0
2019-Dec-07 23:26N 53°33' E 008°34'3 7.0
2019-Dec-07 23:00N 53°36' E 008°36'0 0.0 1007.0 8.2 6.0 8.3
2019-Dec-07 22:00N 53°36' E 008°36'3 4.5 1007.8 8.2 6.6 8.3
2019-Dec-07 21:19N 53°33' E 008°34'3 9.6
2019-Dec-07 21:00N 53°36' E 008°36'3 6.4 1008.1 8.1 6.6 8.3
2019-Dec-07 20:30N 53°33' E 008°34'3 6.0
2019-Dec-07 20:00N 53°36' E 008°36'0 0.0 1008.5 8.2 6.9 8.4
2019-Dec-07 19:00N 53°36' E 008°36'0 0.0 1008.4 8.2 6.7 8.4
2019-Dec-07 18:00N 53°36' E 008°36'0 0.0 1008.7 8.4 7.0 8.5
2019-Dec-07 17:00N 53°36' E 008°36'0 0.0 150 / 21008.5 8.4 7.1 8.5
2019-Dec-07 16:00N 53°36' E 008°36'3 5.9 1008.1 8.6 7.0 8.7
2019-Dec-07 15:28N 53°33' E 008°34'3 6.4
2019-Dec-07 15:00N 53°36' E 008°36'3 3.3 1007.8 8.9 6.8 8.9
2019-Dec-07 14:04N 53°33' E 008°34'344.0
2019-Dec-07 14:00N 53°36' E 008°36'398.9 1007.1 10.1 6.8 8.9
2019-Dec-07 13:58N 53°33' E 008°34'3 3.2
2019-Dec-07 13:00N 53°36' E 008°36'0 0.0 1006.9 9.8 6.7 8.9
2019-Dec-07 12:00N 53°36' E 008°36'0 0.0 190 / 21006.1 10.7 7.8 8.7
2019-Dec-07 11:00N 53°36' E 008°36'0 0.0 190 1005.7 9.4 7.3 8.6
2019-Dec-07 10:00N 53°36' E 008°36'3 4.6 1005.6 8.8 7.3 8.6
2019-Dec-07 09:20N 53°33' E 008°34'3 9.2
2019-Dec-07 09:00N 53°36' E 008°36'0 0.0 170 / 21004.9 8.6 7.3 8.6
2019-Dec-07 08:00N 53°36' E 008°36'0 0.0 1004.0 8.4 7.1 8.3
2019-Dec-07 07:00N 53°36' E 008°36'316.9 1002.9 8.3 7.1 8.1
2019-Dec-07 06:49N 53°33' E 008°34'0 0.0
2019-Dec-07 06:30N 53°33' E 008°34'3 6.0
2019-Dec-07 06:00N 53°36' E 008°36'0 0.0 1002.0 8.1 7.0 8.2
2019-Dec-07 05:00N 53°36' E 008°36'3 5.1 1001.0 8.1 7.1 8.1
2019-Dec-07 04:24N 53°33' E 008°34'3 7.7
2019-Dec-07 04:00N 53°36' E 008°36'0 0.0 1000.0 8.0 7.1 8.1
2019-Dec-07 03:00N 53°36' E 008°36'3325.9 160 / 2998.8 8.0 7.2 8.1
2019-Dec-07 02:59N 53°33' E 008°34'3 3.1
2019-Dec-07 02:00N 53°36' E 008°36'0 0.0 998.0 7.9 7.1 7.9
2019-Dec-07 01:00N 53°36' E 008°36'3121.8 997.7 7.9 6.9 7.9
2019-Dec-07 00:58N 53°33' E 008°34'3 3.2
2019-Dec-07 00:00N 53°36' E 008°36'323.2 997.5 7.9 6.9 7.9
2019-Dec-06 23:52N 53°33' E 008°34'0 0.0
2019-Dec-06 23:21N 53°33' E 008°34'3 8.5
2019-Dec-06 23:00N 53°36' E 008°36'0 0.0 997.5 7.9 6.9 7.8
2019-Dec-06 22:00N 53°36' E 008°36'3 4.7 997.8 7.8 6.8 7.6
2019-Dec-06 21:20N 53°33' E 008°34'3 8.8
2019-Dec-06 21:00N 53°36' E 008°36'319.9 998.3 7.6 6.7 7.4
2019-Dec-06 20:50N 53°33' E 008°34'3 3.6
2019-Dec-06 20:00N 53°36' E 008°36'350.4 998.7 7.3 6.5 7.2
2019-Dec-06 19:56N 53°33' E 008°34'0 0.0
2019-Dec-06 19:26N 53°33' E 008°34'3 7.1
2019-Dec-06 19:00N 53°36' E 008°36'0 0.0 999.2 7.1 6.3 6.9
2019-Dec-06 18:00N 53°36' E 008°36'3 7.2 999.6 6.7 6.0 6.6
2019-Dec-06 17:34N 53°33' E 008°34'3 5.4
2019-Dec-06 17:00N 53°36' E 008°36'3 8.0 230 / 41000.0 6.3 5.5 6.3
2019-Dec-06 16:36N 53°33' E 008°34'3 5.0
2019-Dec-06 16:00N 53°36' E 008°36'310.6 1000.5 6.1 5.3 6.3
2019-Dec-06 15:42N 53°33' E 008°34'3 4.3
2019-Dec-06 15:00N 53°36' E 008°36'3 3.4 1001.1 6.1 5.1 6.3
2019-Dec-06 14:05N 53°33' E 008°34'331.8
2019-Dec-06 14:00N 53°36' E 008°36'0 0.0 1001.7 6.0 5.0 6.2
2019-Dec-06 13:00N 53°36' E 008°36'0 0.0 240 / 41002.5 6.1 4.9 6.1
2019-Dec-06 12:00N 53°36' E 008°36'0 0.0 1003.5 6.0 4.7 6.0
2019-Dec-06 11:00N 53°36' E 008°36'3 9.4 250 / 41004.4 5.9 4.4 6.1
2019-Dec-06 10:40N 53°33' E 008°34'3 4.6
2019-Dec-06 10:00N 53°36' E 008°36'0 0.0 1005.3 6.1 4.8 6.1
2019-Dec-06 09:00N 53°36' E 008°36'0 0.0 1005.2 5.7 4.7 6.0
2019-Dec-06 08:00N 53°36' E 008°36'0 0.0 190 / 41005.5 5.6 4.5 6.0
2019-Dec-06 07:00N 53°36' E 008°36'0 0.0 1005.7 5.7 4.5 6.0
2019-Dec-06 06:00N 53°36' E 008°36'0 0.0 1006.0 5.8 4.5 6.0
2019-Dec-06 05:00N 53°36' E 008°36'0 0.0 1005.9 5.7 4.4 5.9
2019-Dec-06 04:00N 53°36' E 008°36'0 0.0 1006.1 5.7 4.2 5.7
2019-Dec-06 03:00N 53°36' E 008°36'0 0.0 1006.5 5.6 3.9 5.3
2019-Dec-06 02:00N 53°36' E 008°36'0 0.0 1007.0 5.1 3.5 4.9
2019-Dec-06 01:00N 53°36' E 008°36'0 0.0 1007.2 4.6 3.2 4.5
2019-Dec-06 00:00N 53°36' E 008°36'0 0.0 1008.4 4.1 2.7 4.2
2019-Dec-05 23:00N 53°36' E 008°36'0 0.0 1009.4 3.8 2.4 3.7
2019-Dec-05 22:00N 53°36' E 008°36'0 0.0 1010.6 3.5 2.5 3.8
2019-Dec-05 21:00N 53°36' E 008°36'0 0.0 1011.4 3.2 2.1 3.6
2019-Dec-05 20:00N 53°36' E 008°36'0 0.0 1012.4 3.0 1.8 3.6
2019-Dec-05 19:00N 53°36' E 008°36'0 0.0 1013.2 3.0 1.7 3.9
2019-Dec-05 18:00N 53°36' E 008°36'0 0.0 1013.9 3.1 1.9 4.1
2019-Dec-05 17:00N 53°36' E 008°36'0 0.0 1014.4 3.2 2.1 4.5
2019-Dec-05 16:00N 53°36' E 008°36'0 0.0 1015.0 3.2 1.7 5.3
2019-Dec-05 15:00N 53°36' E 008°36'0 0.0 1015.8 4.0 1.6 6.2
2019-Dec-05 14:00N 53°36' E 008°36'0 0.0 1015.9 6.5 2.2 6.9
2019-Dec-05 13:00N 53°36' E 008°36'0 0.0 1016.6 8.7 1.8 7.5
2019-Dec-05 12:00N 53°36' E 008°36'0 0.0 1016.9 8.8 2.5 7.1
2019-Dec-05 11:00N 53°36' E 008°36'0 0.0 1017.2 7.3 1.6 5.2
2019-Dec-05 10:00N 53°36' E 008°36'0 0.0 1017.5 7.6 2.5 3.2
2019-Dec-05 09:00N 53°36' E 008°36'   1017.3 3.1 1.5 2.6
Track history (hours):
 
Tides and Currents Weather Stations Pressure Air Temp Water Temp Dewpoint Dewpoint Depression Visibility Wind Speed Wind Dir Waves Ship Positions

Oceanographic research ship Deneb (Germany)

Detailed information on ship capabilities available from University of Delaware's Ocean Information Center.

Last reported at 2019-Dec-15 09:00 UTC. Time now 2019-Dec-15 10:22 UTC.
Position N 53°36' E 008°36'.

Length 52 m; beam 11 m; draft 5 m.

Type: Law enforcement. MMSI: 211222290.

Wind from 240 at 21 knots

Barometer 989.4 mb
Air temperature 7.9 ° C
Dewpoint 4.1 ° C
Water temperature 6.3 ° C

Date/timePositionNaut miles runAvg speedWind from/ knotsBaromVisibWave heightAir tempDewpointWater temp
2019-Dec-15 09:00N 53°36' E 008°36'0 0.0 240 / 21989.4 7.9 4.1 6.3
2019-Dec-15 08:00N 53°36' E 008°36'3 4.1 220 / 17987.9 7.8 5.5 6.5
2019-Dec-15 07:15N 53°33' E 008°34'312.2
2019-Dec-15 07:00N 53°36' E 008°36'0 0.0 190 / 16987.8 5.7 4.3 6.5
2019-Dec-15 06:00N 53°36' E 008°36'0 0.0 170 / 16988.3 5.4 2.9 6.5
2019-Dec-15 05:00N 53°36' E 008°36'0 0.0 160 / 14989.4 4.2 1.7 6.4
2019-Dec-15 04:00N 53°36' E 008°36'0 0.0 160 / 12991.5 4.5 1.8 6.4
2019-Dec-15 03:00N 53°36' E 008°36'0 0.0 180 / 10993.1 3.4 1.2 6.4
2019-Dec-15 02:00N 53°36' E 008°36'0 0.0 190 / 10994.0 3.7 1.5 6.5
2019-Dec-15 01:00N 53°36' E 008°36'0 0.0 200 / 8994.7 4.2 1.4 6.6
2019-Dec-15 00:00N 53°36' E 008°36'0 0.0 230 / 14994.6 4.5 1.1 6.6
2019-Dec-14 23:00N 53°36' E 008°36'0 0.0 230 / 14994.2 4.2 1.8 6.5
2019-Dec-14 22:00N 53°36' E 008°36'0 0.0 240 / 17993.3 4.1 1.9 6.5
2019-Dec-14 21:00N 53°36' E 008°36'0 0.0 240 / 17992.2 4.5 2.2 6.5
2019-Dec-14 20:00N 53°36' E 008°36'0 0.0 250 / 16991.0 4.8 2.4 6.5
2019-Dec-14 19:00N 53°36' E 008°36'0 0.0 230 / 16989.5 5.4 2.5 7.0
2019-Dec-14 18:00N 53°36' E 008°36'0 0.0 230 / 17988.2 6.2 2.3 6.7
2019-Dec-14 17:00N 53°36' E 008°36'0 0.0 230 / 16987.7 6.2 2.1 6.5
2019-Dec-14 16:00N 53°36' E 008°36'0 0.0 230 / 14987.4 5.4 2.5 6.5
2019-Dec-14 15:00N 53°36' E 008°36'0 0.0 250 / 14986.5 4.7 2.8 6.6
2019-Dec-14 14:00N 53°36' E 008°36'0 0.0 250 / 14985.5 5.7 3.4 6.7
2019-Dec-14 13:00N 53°36' E 008°36'0 0.0 250 / 19984.6 6.0 2.8 6.6
2019-Dec-14 12:00N 53°36' E 008°36'0 0.0 240 / 16983.8 6.0 3.3 6.5
2019-Dec-14 11:00N 53°36' E 008°36'0 0.0 230 / 16982.9 5.0 3.3 6.6
2019-Dec-14 10:00N 53°36' E 008°36'0 0.0 220 / 12982.4 4.5 3.2 6.6
2019-Dec-14 09:00N 53°36' E 008°36'0 0.0 240 / 14981.7 4.1 2.7 6.5
2019-Dec-14 08:00N 53°36' E 008°36'0 0.0 230 / 16980.6 5.0 3.2 6.7
2019-Dec-14 07:00N 53°36' E 008°36'0 0.0 220 / 10979.8 4.9 3.7 6.7
2019-Dec-14 06:00N 53°36' E 008°36'0 0.0 190 / 8979.6 4.7 3.3 6.3
2019-Dec-14 05:00N 53°36' E 008°36'316.5 180 / 10979.4 4.7 3.4 6.1
2019-Dec-14 04:48N 53°33' E 008°34'0 0.0
2019-Dec-14 04:30N 53°33' E 008°34'3 6.0
2019-Dec-14 04:00N 53°36' E 008°36'3 6.2 180 / 10979.8 5.0 3.7 5.9
2019-Dec-14 03:30N 53°33' E 008°34'3 6.1
2019-Dec-14 03:00N 53°36' E 008°36'0 0.0 220 / 10980.4 5.3 4.1 5.7
2019-Dec-14 02:00N 53°36' E 008°36'0 0.0 180 / 8980.7 4.2 3.8 6.0
2019-Dec-14 01:00N 53°36' E 008°36'0 0.0 180 / 8980.8 3.3 2.9 6.8
2019-Dec-14 00:00N 53°36' E 008°36'3 4.9 180 / 10981.3 2.4 2.0 6.7
2019-Dec-13 23:22N 53°33' E 008°34'3 8.2
2019-Dec-13 23:00N 53°36' E 008°36'3 5.8 170 / 8981.6 2.1 1.7 6.7
2019-Dec-13 22:28N 53°33' E 008°34'3 6.6
2019-Dec-13 22:00N 53°36' E 008°36'0 0.0 170 / 6981.9 1.5 1.5 6.7
2019-Dec-13 21:00N 53°36' E 008°36'3 4.1 180 / 6982.0 1.1 0.7 6.5
2019-Dec-13 20:15N 53°33' E 008°34'312.3
2019-Dec-13 20:00N 53°36' E 008°36'0 0.0 160 / 4981.9 1.2 0.7 6.3
2019-Dec-13 19:00N 53°36' E 008°36'0 0.0 160 / 6981.5 1.5 0.8 6.2
2019-Dec-13 18:00N 53°36' E 008°36'0 0.0 160 / 6981.0 2.3 1.0 6.2
2019-Dec-13 17:00N 53°36' E 008°36'0 0.0 120 / 4980.6 2.1 0.4 6.1
2019-Dec-13 16:00N 53°36' E 008°36'0 0.0 120 / 6980.0 2.1 0.4 6.1
2019-Dec-13 15:00N 53°36' E 008°36'0 0.0 120 / 8979.5 2.0 0.5 5.8
2019-Dec-13 14:00N 53°36' E 008°36'0 0.0 120 / 8978.9 2.7-0.2 6.3
2019-Dec-13 13:00N 53°36' E 008°36'0 0.0 120 / 6978.4 2.7-0.5 6.6
2019-Dec-13 12:00N 53°36' E 008°36'0 0.0 130 / 8978.3 2.6-0.6 6.6
2019-Dec-13 11:00N 53°36' E 008°36'0 0.0 120 / 8978.3 2.2-0.9 6.5
2019-Dec-13 10:00N 53°36' E 008°36'0 0.0 130 / 10978.4 2.1-1.2 6.4
2019-Dec-13 09:00N 53°36' E 008°36'3 4.9 130 / 12978.4 1.9-1.2 6.4
2019-Dec-13 08:21N 53°33' E 008°34'3 8.4
2019-Dec-13 08:00N 53°36' E 008°36'0 0.0 130 / 12978.5 1.7-1.2 6.2
2019-Dec-13 07:00N 53°36' E 008°36'3 6.9 140 / 4979.0 1.9-1.1 6.7
2019-Dec-13 06:33N 53°33' E 008°34'0 0.0
2019-Dec-13 06:21N 53°33' E 008°34'3 8.8
2019-Dec-13 06:00N 53°36' E 008°36'312.2 130 / 10979.7 1.8-1.1 6.9
2019-Dec-13 05:44N 53°33' E 008°34'3 4.1
2019-Dec-13 05:00N 53°36' E 008°36'3 4.0 130 / 14980.3 1.8-1.1 6.9
2019-Dec-13 04:14N 53°33' E 008°34'313.0
2019-Dec-13 04:00N 53°36' E 008°36'0 0.0 140 / 12981.2 2.1-0.8 6.7
2019-Dec-13 03:00N 53°36' E 008°36'0 0.0 140 / 12982.5 2.2-0.8 6.3
2019-Dec-13 02:00N 53°36' E 008°36'0 0.0 140 / 12984.1 2.1-0.7 6.1
2019-Dec-13 01:00N 53°36' E 008°36'0 0.0 140 / 12985.3 2.1-0.5 5.9
2019-Dec-13 00:00N 53°36' E 008°36'0 0.0 150 / 10987.2 2.1-0.5 6.5
2019-Dec-12 23:00N 53°36' E 008°36'0 0.0 150 / 10988.7 2.3-0.1 6.8
2019-Dec-12 22:00N 53°36' E 008°36'0 0.0 140 / 10990.1 2.3 0.7 6.7
2019-Dec-12 21:00N 53°36' E 008°36'0 0.0 150 / 10991.5 2.5-0.0 6.7
2019-Dec-12 20:00N 53°36' E 008°36'324.7 150 / 10992.5 3.1 0.6 6.6
2019-Dec-12 19:52N 53°33' E 008°34'3 3.5
2019-Dec-12 19:00N 53°36' E 008°36'0 0.0 150 / 10993.8 3.5 1.0 6.6
2019-Dec-12 18:00N 53°36' E 008°36'0 0.0 150 / 8994.8 3.9 1.2 6.6
2019-Dec-12 17:00N 53°36' E 008°36'0 0.0 160 / 6995.7 4.3 2.0 6.6
2019-Dec-12 16:00N 53°36' E 008°36'0 0.0 160 / 8996.5 4.7 2.5 6.4
2019-Dec-12 15:00N 53°36' E 008°36'0 0.0 160 / 6996.9 5.5 3.1 6.2
2019-Dec-12 14:00N 53°36' E 008°36'3 5.0 160 / 6997.2 5.7 3.1 6.1
2019-Dec-12 13:22N 53°33' E 008°34'3 8.1
2019-Dec-12 13:00N 53°36' E 008°36'0 0.0 160 / 8998.1 5.8 3.5 6.9
2019-Dec-12 12:00N 53°36' E 008°36'0 0.0 160 / 10998.6 5.5 3.2 6.8
2019-Dec-12 11:00N 53°36' E 008°36'0 0.0 160 / 12998.9 5.4 3.6 6.8
2019-Dec-12 10:00N 53°36' E 008°36'0 0.0 160 / 12999.5 5.4 3.6 6.8
2019-Dec-12 09:00N 53°36' E 008°36'0 0.0 160 / 6999.6 5.4 3.6 6.7
2019-Dec-12 08:00N 53°36' E 008°36'0 0.0 160 / 6999.4 5.4 3.7 6.5
2019-Dec-12 07:00N 53°36' E 008°36'0 0.0 160 / 8999.6 5.0 4.2 6.3
2019-Dec-12 06:00N 53°36' E 008°36'3124.5 160 / 8999.7 4.8 4.1 6.4
2019-Dec-12 05:58N 53°33' E 008°34'3 3.2
2019-Dec-12 05:00N 53°36' E 008°36'3 6.4 160 / 81000.0 4.6 3.8 6.4
2019-Dec-12 04:30N 53°33' E 008°34'3 6.0
2019-Dec-12 04:00N 53°36' E 008°36'0 0.0 160 / 61000.4 4.9 3.6 6.3
2019-Dec-12 03:00N 53°36' E 008°36'0 0.0 160 / 61001.0 5.1 3.6 6.2
2019-Dec-12 02:00N 53°36' E 008°36'31231.3 160 / 61001.5 5.1 3.5 6.2
2019-Dec-12 01:59N 53°33' E 008°34'0 0.0
2019-Dec-12 01:23N 53°33' E 008°34'3 7.8
2019-Dec-12 01:00N 53°36' E 008°36'3 5.5 160 / 61001.8 5.0 3.7 6.0
2019-Dec-12 00:26N 53°33' E 008°34'3 7.1
2019-Dec-12 00:00N 53°36' E 008°36'311.4 160 / 61002.0 5.3 4.1 6.7
2019-Dec-11 23:43N 53°33' E 008°34'3 4.2
2019-Dec-11 23:00N 53°36' E 008°36'3 4.5 160 / 61002.6 5.5 4.3 6.7
2019-Dec-11 22:19N 53°33' E 008°34'3 9.6
2019-Dec-11 22:00N 53°36' E 008°36'3 3.1 160 / 81002.9 5.6 4.5 6.8
2019-Dec-11 21:00N 53°33' E 008°34'3291.6
2019-Dec-11 21:00N 53°36' E 008°36'0 0.0 160 / 61003.2 5.7 4.8 6.8
2019-Dec-11 20:00N 53°36' E 008°36'3 6.2 160 / 41003.3 5.8 5.3 6.7
2019-Dec-11 19:30N 53°33' E 008°34'3 6.2
2019-Dec-11 19:00N 53°36' E 008°36'0 0.0 160 / 41003.6 5.8 5.8 6.7
2019-Dec-11 18:00N 53°36' E 008°36'0 0.0 160 / 61003.9 5.5 5.6 6.7
2019-Dec-11 17:00N 53°36' E 008°36'0 0.0 160 / 61003.9 5.5 5.1 6.7
2019-Dec-11 16:00N 53°36' E 008°36'0 0.0 160 / 61004.3 5.6 5.1 6.5
2019-Dec-11 15:00N 53°36' E 008°36'0 0.0 160 / 61004.5 5.7 5.0 6.4
2019-Dec-11 14:00N 53°36' E 008°36'0 0.0 160 / 61005.0 5.9 5.0 6.2
2019-Dec-11 13:00N 53°36' E 008°36'0 0.0 160 / 61005.5 6.1 4.9 6.0
2019-Dec-11 12:00N 53°36' E 008°36'0 0.0 160 / 81006.3 5.9 4.8 6.7
2019-Dec-11 11:00N 53°36' E 008°36'349.7 160 / 81006.9 5.8 4.8 6.5
2019-Dec-11 10:56N 53°33' E 008°34'3 3.3
2019-Dec-11 10:00N 53°36' E 008°36'0 0.0 200 / 61007.4 5.5 4.6 6.2
2019-Dec-11 09:00N 53°36' E 008°36'0 0.0 200 / 81006.8 5.2 4.4 6.8
2019-Dec-11 08:00N 53°36' E 008°36'3 6.3 200 / 101006.9 5.1 4.2 6.7
2019-Dec-11 07:30N 53°33' E 008°34'3 6.0
2019-Dec-11 07:00N 53°36' E 008°36'3 3.1 210 / 101006.8 5.2 4.0 6.8
2019-Dec-11 06:00N 53°33' E 008°34'3923.5
2019-Dec-11 06:00N 53°36' E 008°36'0 0.0 220 / 141006.9 5.5 4.1 7.0
2019-Dec-11 05:00N 53°36' E 008°36'0 0.0 220 / 161006.9 5.7 3.6 7.0
2019-Dec-11 04:00N 53°36' E 008°36'0 0.0 210 / 141006.8 6.4 2.3 6.7
2019-Dec-11 03:00N 53°36' E 008°36'0 0.0 210 / 141006.8 6.1 1.9 6.3
2019-Dec-11 02:00N 53°36' E 008°36'0 0.0 210 / 121007.4 6.0 0.5 6.0
2019-Dec-11 01:00N 53°36' E 008°36'0 0.0 200 / 161007.6 6.2-0.5 5.7
2019-Dec-11 00:00N 53°36' E 008°36'0 0.0 200 / 141008.6 6.0-0.4 5.5
2019-Dec-10 23:00N 53°36' E 008°36'0 0.0 190 / 141009.4 5.5 0.3 5.5
2019-Dec-10 22:00N 53°36' E 008°36'0 0.0 180 / 161010.0 5.1 0.3 5.4
2019-Dec-10 21:00N 53°36' E 008°36'0 0.0 180 / 171010.9 4.7 1.0 5.3
2019-Dec-10 20:00N 53°36' E 008°36'0 0.0 180 / 161012.4 4.5 1.3 5.3
2019-Dec-10 19:00N 53°36' E 008°36'0 0.0 180 / 161013.7 4.2 1.5 5.3
2019-Dec-10 18:00N 53°36' E 008°36'0 0.0 180 / 171014.8 4.0 1.8 5.6
2019-Dec-10 17:00N 53°36' E 008°36'0 0.0 180 / 141016.2 4.1 1.8 6.3
2019-Dec-10 16:00N 53°36' E 008°36'0 0.0 190 / 121017.3 4.6 1.8 7.0
2019-Dec-10 15:00N 53°36' E 008°36'0 0.0 190 / 101018.0 5.4 2.1 7.7
2019-Dec-10 14:00N 53°36' E 008°36'0 0.0 200 / 81019.2 5.7 1.9 8.4
2019-Dec-10 13:00N 53°36' E 008°36'3 4.2 200 / 81020.1 5.8 1.8 9.7
2019-Dec-10 12:16N 53°33' E 008°34'311.2
2019-Dec-10 12:00N 53°36' E 008°36'0 0.0 330 / 101020.9 5.8 1.110.5
2019-Dec-10 11:00N 53°36' E 008°36'0 0.0 330 / 81021.3 5.4 1.1 8.1
2019-Dec-10 10:00N 53°36' E 008°36'0 0.0 330 / 101021.7 4.5 1.9 6.9
2019-Dec-10 09:00N 53°36' E 008°36'0 0.0 330 / 81021.1 4.1 1.6 7.0
2019-Dec-10 08:00N 53°36' E 008°36'0 0.0 330 / 81021.0 3.7 1.5 7.0
2019-Dec-10 07:00N 53°36' E 008°36'0 0.0 330 / 81020.3 3.2 1.5 7.4
2019-Dec-10 06:00N 53°36' E 008°36'0 0.0 330 / 61019.8 3.8 1.7 8.3
2019-Dec-10 05:00N 53°36' E 008°36'3 3.9 330 / 121019.2 5.9 1.9 8.6
2019-Dec-10 04:13N 53°33' E 008°34'314.2
2019-Dec-10 04:00N 53°36' E 008°36'0 0.0 330 / 101018.4 5.7 2.5 8.9
2019-Dec-10 03:00N 53°36' E 008°36'0 0.0 340 / 101017.3 5.5 1.9 9.0
2019-Dec-10 02:00N 53°36' E 008°36'310.2 340 / 101016.3 6.1 2.3 9.2
2019-Dec-10 01:41N 53°33' E 008°34'3 4.4
2019-Dec-10 01:00N 53°36' E 008°36'0 0.0 340 / 161014.9 6.0 1.3 9.3
2019-Dec-10 00:00N 53°36' E 008°36'0 0.0 330 / 171013.7 6.1 2.8 9.2
2019-Dec-09 23:00N 53°36' E 008°36'0 0.0 330 / 161012.3 6.3 3.0 9.2
2019-Dec-09 22:00N 53°36' E 008°36'324.0 330 / 191011.0 5.2 1.8 9.1
2019-Dec-09 21:52N 53°33' E 008°34'3 3.5
2019-Dec-09 21:00N 53°36' E 008°36'3 5.7 340 / 161009.5 6.5 0.8 9.0
2019-Dec-09 20:27N 53°33' E 008°34'3 6.7
2019-Dec-09 20:00N 53°36' E 008°36'3 8.9 340 / 171007.9 6.7 0.5 9.1
2019-Dec-09 19:39N 53°33' E 008°34'3 4.7
2019-Dec-09 19:00N 53°36' E 008°36'0 0.0 340 / 141006.0 7.7 0.9 8.7
2019-Dec-09 18:00N 53°36' E 008°36'319.6 340 / 121004.3 7.2 2.8 9.0
2019-Dec-09 17:50N 53°33' E 008°34'3 3.7
2019-Dec-09 17:00N 53°36' E 008°36'0 0.0 350 / 101002.3 7.4 2.5 8.8
2019-Dec-09 16:00N 53°36' E 008°36'0 0.0 350 / 81000.3 6.7 4.2 8.9
2019-Dec-09 15:00N 53°36' E 008°36'0 0.0 330 / 12998.3 6.5 5.2 8.5
2019-Dec-09 14:00N 53°36' E 008°36'0 0.0 330 / 12996.5 6.8 4.8 8.5
2019-Dec-09 13:00N 53°36' E 008°36'0 0.0 330 / 14995.5 6.8 4.5 8.5
2019-Dec-09 12:00N 53°36' E 008°36'0 0.0 330 / 12994.5 6.8 4.2 8.3
2019-Dec-09 11:00N 53°36' E 008°36'0 0.0 330 / 10993.9 6.8 4.3 8.0
2019-Dec-09 10:00N 53°36' E 008°36'0 0.0 330 / 14993.5 7.0 4.1 7.8
2019-Dec-09 09:00N 53°36' E 008°36'0 0.0 330 / 12993.0 7.0 3.9 7.6
2019-Dec-09 08:00N 53°36' E 008°36'0 0.0 992.6 6.7 4.0 7.2
2019-Dec-09 07:00N 53°36' E 008°36'0 0.0 992.0 6.2 3.8 6.9
2019-Dec-09 06:00N 53°36' E 008°36'0 0.0 991.6 6.0 3.6 7.1
2019-Dec-09 05:00N 53°36' E 008°36'3 4.7 991.6 6.3 3.7 7.1
2019-Dec-09 04:20N 53°33' E 008°34'3 8.9
2019-Dec-09 04:00N 53°36' E 008°36'3 5.0 991.6 6.3 3.9 7.0
2019-Dec-09 03:23N 53°33' E 008°34'3 7.9
2019-Dec-09 03:00N 53°36' E 008°36'0 0.0 991.6 6.2 3.8 7.0
2019-Dec-09 02:00N 53°36' E 008°36'0 0.0 991.8 5.7 3.8 7.1
2019-Dec-09 01:00N 53°36' E 008°36'0 0.0 991.6 5.9 3.8 7.3
2019-Dec-09 00:00N 53°36' E 008°36'0 0.0 991.6 6.5 3.2 7.3
2019-Dec-08 23:00N 53°36' E 008°36'3 6.2 991.4 6.6 3.9 7.5
2019-Dec-08 22:30N 53°33' E 008°34'3 6.1
2019-Dec-08 22:00N 53°36' E 008°36'0 0.0 991.7 6.6 4.0 7.5
2019-Dec-08 21:00N 53°36' E 008°36'3 6.0 992.3 6.9 4.1 7.8
2019-Dec-08 20:29N 53°33' E 008°34'3 6.3
2019-Dec-08 20:00N 53°36' E 008°36'3201.5 992.5 7.5 4.6 8.1
2019-Dec-08 19:59N 53°33' E 008°34'3 3.1
2019-Dec-08 19:00N 53°36' E 008°36'0 0.0 992.8 7.4 4.8 8.0
2019-Dec-08 18:00N 53°36' E 008°36'3104.5 993.2 7.9 4.8 8.3
2019-Dec-08 17:58N 53°33' E 008°34'3 3.2
2019-Dec-08 17:00N 53°36' E 008°36'322.4 993.3 8.3 5.5 8.7
2019-Dec-08 16:51N 53°33' E 008°34'3 3.6
2019-Dec-08 16:00N 53°36' E 008°36'0 0.0 993.3 8.8 5.4 9.0
2019-Dec-08 15:00N 53°36' E 008°36'0 0.0 993.0 9.0 6.5 9.3
2019-Dec-08 14:00N 53°36' E 008°36'0 0.0 992.9 9.9 7.1 9.4
2019-Dec-08 13:00N 53°36' E 008°36'347.0 992.8 9.8 7.8 9.4
2019-Dec-08 12:56N 53°33' E 008°34'3 3.3
2019-Dec-08 12:00N 53°36' E 008°36'0 0.0 993.0 9.7 8.1 9.1
2019-Dec-08 11:00N 53°36' E 008°36'310.9 993.4 9.1 7.9 8.8
2019-Dec-08 10:43N 53°33' E 008°34'0 0.0
2019-Dec-08 10:00N 53°33' E 008°34'3240.9
2019-Dec-08 10:00N 53°36' E 008°36'3 3.1 994.3 8.7 7.5 8.6
2019-Dec-08 09:00N 53°33' E 008°34'3554.1
2019-Dec-08 09:00N 53°36' E 008°36'0 0.0 995.0 8.3 6.8 8.6
2019-Dec-08 08:00N 53°36' E 008°36'0 0.0 995.1 8.4 6.3 8.6
2019-Dec-08 07:00N 53°36' E 008°36'0 0.0 996.6 8.8 5.2 8.5
2019-Dec-08 06:00N 53°36' E 008°36'0 0.0 997.7 8.7 5.1 8.5
2019-Dec-08 05:00N 53°36' E 008°36'0 0.0 998.6 8.8 5.4 8.5
2019-Dec-08 04:00N 53°36' E 008°36'3 5.8 220 / 41000.7 8.8 5.7 8.4
2019-Dec-08 03:27N 53°33' E 008°34'3 6.6
2019-Dec-08 03:00N 53°36' E 008°36'381.5 1002.1 8.5 5.7 8.2
2019-Dec-08 02:57N 53°33' E 008°34'0 0.0
2019-Dec-08 02:09N 53°33' E 008°34'319.6
2019-Dec-08 02:00N 53°36' E 008°36'3 4.7 1003.4 8.1 5.0 8.1
2019-Dec-08 01:21N 53°33' E 008°34'3 8.8
2019-Dec-08 01:00N 53°36' E 008°36'0 0.0 1004.8 8.1 5.1 8.2
2019-Dec-08 00:00N 53°36' E 008°36'351.8 1006.0 8.2 5.4 8.3
2019-Dec-07 23:56N 53°33' E 008°34'0 0.0
2019-Dec-07 23:26N 53°33' E 008°34'3 7.0
2019-Dec-07 23:00N 53°36' E 008°36'0 0.0 1007.0 8.2 6.0 8.3
2019-Dec-07 22:00N 53°36' E 008°36'3 4.5 1007.8 8.2 6.6 8.3
2019-Dec-07 21:19N 53°33' E 008°34'3 9.6
2019-Dec-07 21:00N 53°36' E 008°36'3 6.4 1008.1 8.1 6.6 8.3
2019-Dec-07 20:30N 53°33' E 008°34'3 6.0
2019-Dec-07 20:00N 53°36' E 008°36'0 0.0 1008.5 8.2 6.9 8.4
2019-Dec-07 19:00N 53°36' E 008°36'0 0.0 1008.4 8.2 6.7 8.4
2019-Dec-07 18:00N 53°36' E 008°36'0 0.0 1008.7 8.4 7.0 8.5
2019-Dec-07 17:00N 53°36' E 008°36'0 0.0 150 / 21008.5 8.4 7.1 8.5
2019-Dec-07 16:00N 53°36' E 008°36'3 5.9 1008.1 8.6 7.0 8.7
2019-Dec-07 15:28N 53°33' E 008°34'3 6.4
2019-Dec-07 15:00N 53°36' E 008°36'3 3.3 1007.8 8.9 6.8 8.9
2019-Dec-07 14:04N 53°33' E 008°34'344.0
2019-Dec-07 14:00N 53°36' E 008°36'398.9 1007.1 10.1 6.8 8.9
2019-Dec-07 13:58N 53°33' E 008°34'3 3.2
2019-Dec-07 13:00N 53°36' E 008°36'0 0.0 1006.9 9.8 6.7 8.9
2019-Dec-07 12:00N 53°36' E 008°36'0 0.0 190 / 21006.1 10.7 7.8 8.7
2019-Dec-07 11:00N 53°36' E 008°36'0 0.0 190 1005.7 9.4 7.3 8.6
2019-Dec-07 10:00N 53°36' E 008°36'3 4.6 1005.6 8.8 7.3 8.6
2019-Dec-07 09:20N 53°33' E 008°34'3 9.2
2019-Dec-07 09:00N 53°36' E 008°36'0 0.0 170 / 21004.9 8.6 7.3 8.6
2019-Dec-07 08:00N 53°36' E 008°36'0 0.0 1004.0 8.4 7.1 8.3
2019-Dec-07 07:00N 53°36' E 008°36'316.9 1002.9 8.3 7.1 8.1
2019-Dec-07 06:49N 53°33' E 008°34'0 0.0
2019-Dec-07 06:30N 53°33' E 008°34'3 6.0
2019-Dec-07 06:00N 53°36' E 008°36'0 0.0 1002.0 8.1 7.0 8.2
2019-Dec-07 05:00N 53°36' E 008°36'3 5.1 1001.0 8.1 7.1 8.1
2019-Dec-07 04:24N 53°33' E 008°34'3 7.7
2019-Dec-07 04:00N 53°36' E 008°36'0 0.0 1000.0 8.0 7.1 8.1
2019-Dec-07 03:00N 53°36' E 008°36'3325.9 160 / 2998.8 8.0 7.2 8.1
2019-Dec-07 02:59N 53°33' E 008°34'3 3.1
2019-Dec-07 02:00N 53°36' E 008°36'0 0.0 998.0 7.9 7.1 7.9
2019-Dec-07 01:00N 53°36' E 008°36'3121.8 997.7 7.9 6.9 7.9
2019-Dec-07 00:58N 53°33' E 008°34'3 3.2
2019-Dec-07 00:00N 53°36' E 008°36'323.2 997.5 7.9 6.9 7.9
2019-Dec-06 23:52N 53°33' E 008°34'0 0.0
2019-Dec-06 23:21N 53°33' E 008°34'3 8.5
2019-Dec-06 23:00N 53°36' E 008°36'0 0.0 997.5 7.9 6.9 7.8
2019-Dec-06 22:00N 53°36' E 008°36'3 4.7 997.8 7.8 6.8 7.6
2019-Dec-06 21:20N 53°33' E 008°34'3 8.8
2019-Dec-06 21:00N 53°36' E 008°36'319.9 998.3 7.6 6.7 7.4
2019-Dec-06 20:50N 53°33' E 008°34'3 3.6
2019-Dec-06 20:00N 53°36' E 008°36'350.4 998.7 7.3 6.5 7.2
2019-Dec-06 19:56N 53°33' E 008°34'0 0.0
2019-Dec-06 19:26N 53°33' E 008°34'3 7.1
2019-Dec-06 19:00N 53°36' E 008°36'0 0.0 999.2 7.1 6.3 6.9
2019-Dec-06 18:00N 53°36' E 008°36'3 7.2 999.6 6.7 6.0 6.6
2019-Dec-06 17:34N 53°33' E 008°34'3 5.4
2019-Dec-06 17:00N 53°36' E 008°36'3 8.0 230 / 41000.0 6.3 5.5 6.3
2019-Dec-06 16:36N 53°33' E 008°34'3 5.0
2019-Dec-06 16:00N 53°36' E 008°36'310.6 1000.5 6.1 5.3 6.3
2019-Dec-06 15:42N 53°33' E 008°34'3 4.3
2019-Dec-06 15:00N 53°36' E 008°36'3 3.4 1001.1 6.1 5.1 6.3
2019-Dec-06 14:05N 53°33' E 008°34'331.8
2019-Dec-06 14:00N 53°36' E 008°36'0 0.0 1001.7 6.0 5.0 6.2
2019-Dec-06 13:00N 53°36' E 008°36'0 0.0 240 / 41002.5 6.1 4.9 6.1
2019-Dec-06 12:00N 53°36' E 008°36'0 0.0 1003.5 6.0 4.7 6.0
2019-Dec-06 11:00N 53°36' E 008°36'3 9.4 250 / 41004.4 5.9 4.4 6.1
2019-Dec-06 10:40N 53°33' E 008°34'3 4.6
2019-Dec-06 10:00N 53°36' E 008°36'0 0.0 1005.3 6.1 4.8 6.1
2019-Dec-06 09:00N 53°36' E 008°36'0 0.0 1005.2 5.7 4.7 6.0
2019-Dec-06 08:00N 53°36' E 008°36'0 0.0 190 / 41005.5 5.6 4.5 6.0
2019-Dec-06 07:00N 53°36' E 008°36'0 0.0 1005.7 5.7 4.5 6.0
2019-Dec-06 06:00N 53°36' E 008°36'0 0.0 1006.0 5.8 4.5 6.0
2019-Dec-06 05:00N 53°36' E 008°36'0 0.0 1005.9 5.7 4.4 5.9
2019-Dec-06 04:00N 53°36' E 008°36'0 0.0 1006.1 5.7 4.2 5.7
2019-Dec-06 03:00N 53°36' E 008°36'0 0.0 1006.5 5.6 3.9 5.3
2019-Dec-06 02:00N 53°36' E 008°36'0 0.0 1007.0 5.1 3.5 4.9
2019-Dec-06 01:00N 53°36' E 008°36'0 0.0 1007.2 4.6 3.2 4.5
2019-Dec-06 00:00N 53°36' E 008°36'0 0.0 1008.4 4.1 2.7 4.2
2019-Dec-05 23:00N 53°36' E 008°36'0 0.0 1009.4 3.8 2.4 3.7
2019-Dec-05 22:00N 53°36' E 008°36'0 0.0 1010.6 3.5 2.5 3.8
2019-Dec-05 21:00N 53°36' E 008°36'0 0.0 1011.4 3.2 2.1 3.6
2019-Dec-05 20:00N 53°36' E 008°36'0 0.0 1012.4 3.0 1.8 3.6
2019-Dec-05 19:00N 53°36' E 008°36'0 0.0 1013.2 3.0 1.7 3.9
2019-Dec-05 18:00N 53°36' E 008°36'0 0.0 1013.9 3.1 1.9 4.1
2019-Dec-05 17:00N 53°36' E 008°36'0 0.0 1014.4 3.2 2.1 4.5
2019-Dec-05 16:00N 53°36' E 008°36'0 0.0 1015.0 3.2 1.7 5.3
2019-Dec-05 15:00N 53°36' E 008°36'0 0.0 1015.8 4.0 1.6 6.2
2019-Dec-05 14:00N 53°36' E 008°36'0 0.0 1015.9 6.5 2.2 6.9
2019-Dec-05 13:00N 53°36' E 008°36'0 0.0 1016.6 8.7 1.8 7.5
2019-Dec-05 12:00N 53°36' E 008°36'0 0.0 1016.9 8.8 2.5 7.1
2019-Dec-05 11:00N 53°36' E 008°36'0 0.0 1017.2 7.3 1.6 5.2
2019-Dec-05 10:00N 53°36' E 008°36'0 0.0 1017.5 7.6 2.5 3.2
2019-Dec-05 09:00N 53°36' E 008°36'   1017.3 3.1 1.5 2.6

Dump ship's entire track history